Airport View

Enter AWOS ICAO identifier for current METAR.

ex. KFNL

PAMM 260856Z AUTO 00000KT 10SM CLR 14/12 A2994 RMK AO2 SLP130 T01440122 51001 $

26 Jun 2019 12:09

Frequency: 135.55

Other Area AWOS: PANT - PAKT - PAHY - CWEK

TAF PAKT 261132Z 2612/2712 31006KT P6SM FEW090 FM262300 30013KT P6SM SKC FM270400 31005KT P6SM SKC AMD LTD TO CLD VIS AND WIND 2612/2615